Blackall, Australia
Current Conditions -  °F | °C
As of 4:00 PM on Sunday 21 Dec 2014 (Local Time) from YLRE Reporting Station
Clear Clear  
Wind Chill: 102°   Ceiling: Unl
Heat Index: 102°   Visibility: 6mi
Dew Point: 46°   Wind: 15mph
Humidity: 15%   Direction: 70°ENE
Pressure: 29.8"   Gusts: NA
Location:  24.42°S, 145.47°E
Report Text: YLRE 210600Z 07013KT CAVOK 39/08 Q1009
Loading
Personal Weather Stations






























Interactive Weather Map New forecast layout! Learn more

10-Day Weather Forecast

Advertisements
Track Severe Weather on mobile